sensor_id;sensor_type;location;lat;lon;timestamp;temperature;humidity
15184;DHT22;7693;49.266;7.104;2023-01-15T06:36:43;5.80;99.90
15184;DHT22;7693;49.266;7.104;2023-01-15T06:39:09;5.80;99.90
15184;DHT22;7693;49.266;7.104;2023-01-15T06:41:35;5.80;99.90
15184;DHT22;7693;49.266;7.104;2023-01-15T06:44:19;5.80;99.90
15184;DHT22;7693;49.266;7.104;2023-01-15T06:47:14;5.90;99.90
15184;DHT22;7693;49.266;7.104;2023-01-15T06:49:54;5.80;99.90
15184;DHT22;7693;49.266;7.104;2023-01-15T06:52:21;5.90;99.90
15184;DHT22;7693;49.266;7.104;2023-01-15T06:54:47;5.90;99.90
15184;DHT22;7693;49.266;7.104;2023-01-15T06:57:13;5.80;99.90
15184;DHT22;7693;49.266;7.104;2023-01-15T06:59:38;5.90;99.90
15184;DHT22;7693;49.266;7.104;2023-01-15T07:02:04;5.90;99.90
15184;DHT22;7693;49.266;7.104;2023-01-15T07:04:29;5.80;99.90
15184;DHT22;7693;49.266;7.104;2023-01-15T07:06:56;5.80;99.90
15184;DHT22;7693;49.266;7.104;2023-01-15T07:09:21;5.80;99.90
15184;DHT22;7693;49.266;7.104;2023-01-15T07:11:47;5.80;99.90
15184;DHT22;7693;49.266;7.104;2023-01-15T07:14:21;5.80;99.90
15184;DHT22;7693;49.266;7.104;2023-01-15T07:16:47;5.80;99.90
15184;DHT22;7693;49.266;7.104;2023-01-15T07:19:13;5.80;99.90
15184;DHT22;7693;49.266;7.104;2023-01-15T07:21:39;5.80;99.90
15184;DHT22;7693;49.266;7.104;2023-01-15T07:24:05;5.80;99.90
15184;DHT22;7693;49.266;7.104;2023-01-15T07:26:31;5.80;99.90
15184;DHT22;7693;49.266;7.104;2023-01-15T07:28:57;5.80;99.90
15184;DHT22;7693;49.266;7.104;2023-01-15T07:31:22;5.80;99.90
15184;DHT22;7693;49.266;7.104;2023-01-15T07:33:48;5.70;99.90
15184;DHT22;7693;49.266;7.104;2023-01-15T07:36:14;5.70;99.90
15184;DHT22;7693;49.266;7.104;2023-01-15T07:38:39;5.70;99.90
15184;DHT22;7693;49.266;7.104;2023-01-15T07:41:05;5.70;99.90
15184;DHT22;7693;49.266;7.104;2023-01-15T07:43:49;5.70;99.90
15184;DHT22;7693;49.266;7.104;2023-01-15T07:46:33;5.70;99.90
15184;DHT22;7693;49.266;7.104;2023-01-15T07:49:17;5.70;99.90
15184;DHT22;7693;49.266;7.104;2023-01-15T07:52:01;5.70;99.90
15184;DHT22;7693;49.266;7.104;2023-01-15T07:54:27;5.70;99.90
15184;DHT22;7693;49.266;7.104;2023-01-15T07:56:54;5.70;99.90
15184;DHT22;7693;49.266;7.104;2023-01-15T07:59:20;5.70;99.90
15184;DHT22;7693;49.266;7.104;2023-01-15T08:01:46;5.70;99.90
15184;DHT22;7693;49.266;7.104;2023-01-15T08:04:11;5.80;99.90
15184;DHT22;7693;49.266;7.104;2023-01-15T08:06:37;5.80;99.90
15184;DHT22;7693;49.266;7.104;2023-01-15T08:09:03;5.80;99.90
15184;DHT22;7693;49.266;7.104;2023-01-15T08:11:29;5.80;99.90
15184;DHT22;7693;49.266;7.104;2023-01-15T08:14:13;5.90;99.90
15184;DHT22;7693;49.266;7.104;2023-01-15T08:16:57;5.80;99.90
15184;DHT22;7693;49.266;7.104;2023-01-15T08:19:23;5.90;99.90
15184;DHT22;7693;49.266;7.104;2023-01-15T08:21:54;5.90;99.90
15184;DHT22;7693;49.266;7.104;2023-01-15T08:24:20;5.90;99.90
15184;DHT22;7693;49.266;7.104;2023-01-15T08:26:45;5.90;99.90
15184;DHT22;7693;49.266;7.104;2023-01-15T08:29:11;5.90;99.90
15184;DHT22;7693;49.266;7.104;2023-01-15T08:31:36;5.80;99.90
15184;DHT22;7693;49.266;7.104;2023-01-15T08:34:04;5.80;99.90
15184;DHT22;7693;49.266;7.104;2023-01-15T08:36:29;5.90;99.90
15184;DHT22;7693;49.266;7.104;2023-01-15T08:38:55;5.90;99.90
15184;DHT22;7693;49.266;7.104;2023-01-15T08:41:20;5.90;99.90
15184;DHT22;7693;49.266;7.104;2023-01-15T08:43:46;5.90;99.90
15184;DHT22;7693;49.266;7.104;2023-01-15T08:46:12;5.80;99.90
15184;DHT22;7693;49.266;7.104;2023-01-15T08:48:37;5.80;99.90
15184;DHT22;7693;49.266;7.104;2023-01-15T08:51:08;5.80;99.90
15184;DHT22;7693;49.266;7.104;2023-01-15T08:53:34;5.80;99.90
15184;DHT22;7693;49.266;7.104;2023-01-15T08:56:00;5.80;99.90
15184;DHT22;7693;49.266;7.104;2023-01-15T08:58:31;5.80;99.90
15184;DHT22;7693;49.266;7.104;2023-01-15T09:01:06;5.80;99.90
15184;DHT22;7693;49.266;7.104;2023-01-15T09:03:32;5.80;99.90
15184;DHT22;7693;49.266;7.104;2023-01-15T09:05:59;5.80;99.90
15184;DHT22;7693;49.266;7.104;2023-01-15T09:08:25;5.80;99.90
15184;DHT22;7693;49.266;7.104;2023-01-15T09:10:58;5.80;99.90
15184;DHT22;7693;49.266;7.104;2023-01-15T09:13:25;5.80;99.90
15184;DHT22;7693;49.266;7.104;2023-01-15T09:15:51;5.80;99.90
15184;DHT22;7693;49.266;7.104;2023-01-15T09:18:16;5.80;99.90
15184;DHT22;7693;49.266;7.104;2023-01-15T09:20:46;5.80;99.90
15184;DHT22;7693;49.266;7.104;2023-01-15T09:23:12;5.80;99.90
15184;DHT22;7693;49.266;7.104;2023-01-15T09:25:38;5.80;99.90
15184;DHT22;7693;49.266;7.104;2023-01-15T09:28:03;5.80;99.90
15184;DHT22;7693;49.266;7.104;2023-01-15T09:30:29;5.80;99.90
15184;DHT22;7693;49.266;7.104;2023-01-15T09:32:55;5.80;99.90
15184;DHT22;7693;49.266;7.104;2023-01-15T09:35:21;5.80;99.90
15184;DHT22;7693;49.266;7.104;2023-01-15T09:37:51;5.80;99.90
15184;DHT22;7693;49.266;7.104;2023-01-15T09:43:07;5.80;99.90
15184;DHT22;7693;49.266;7.104;2023-01-15T09:45:46;5.80;99.90
15184;DHT22;7693;49.266;7.104;2023-01-15T13:37:50;6.90;99.90
15184;DHT22;7693;49.266;7.104;2023-01-15T13:40:34;6.90;99.90
15184;DHT22;7693;49.266;7.104;2023-01-15T13:43:02;6.90;99.90
15184;DHT22;7693;49.266;7.104;2023-01-15T13:45:40;6.90;99.90
15184;DHT22;7693;49.266;7.104;2023-01-15T13:48:14;6.90;99.90
15184;DHT22;7693;49.266;7.104;2023-01-15T13:50:50;7.00;99.90
15184;DHT22;7693;49.266;7.104;2023-01-15T13:53:29;7.00;99.90
15184;DHT22;7693;49.266;7.104;2023-01-15T13:56:02;7.00;99.90
15184;DHT22;7693;49.266;7.104;2023-01-15T13:58:37;7.00;99.90
15184;DHT22;7693;49.266;7.104;2023-01-15T14:04:14;7.00;99.90
15184;DHT22;7693;49.266;7.104;2023-01-15T14:06:41;7.00;99.90
15184;DHT22;7693;49.266;7.104;2023-01-15T14:09:26;7.00;99.90
15184;DHT22;7693;49.266;7.104;2023-01-15T14:20:33;6.90;99.90
15184;DHT22;7693;49.266;7.104;2023-01-15T14:37:04;6.90;99.90
15184;DHT22;7693;49.266;7.104;2023-01-15T14:39:50;6.90;99.90
15184;DHT22;7693;49.266;7.104;2023-01-15T14:47:55;6.80;99.90
15184;DHT22;7693;49.266;7.104;2023-01-15T14:50:31;6.80;99.90
15184;DHT22;7693;49.266;7.104;2023-01-15T14:59:07;6.70;99.90
15184;DHT22;7693;49.266;7.104;2023-01-15T15:01:35;6.70;99.90
15184;DHT22;7693;49.266;7.104;2023-01-15T15:07:04;6.80;99.90
15184;DHT22;7693;49.266;7.104;2023-01-15T15:09:54;6.80;99.90
15184;DHT22;7693;49.266;7.104;2023-01-15T15:26:32;6.70;99.90
15184;DHT22;7693;49.266;7.104;2023-01-15T15:29:00;6.70;99.90
15184;DHT22;7693;49.266;7.104;2023-01-15T15:31:28;6.70;99.90
15184;DHT22;7693;49.266;7.104;2023-01-15T15:33:56;6.70;99.90
15184;DHT22;7693;49.266;7.104;2023-01-15T15:36:29;6.60;99.90
15184;DHT22;7693;49.266;7.104;2023-01-15T15:38:58;6.60;99.90
15184;DHT22;7693;49.266;7.104;2023-01-15T15:41:28;6.60;99.90
15184;DHT22;7693;49.266;7.104;2023-01-15T15:44:17;6.60;99.90
15184;DHT22;7693;49.266;7.104;2023-01-15T15:47:22;6.60;99.90
15184;DHT22;7693;49.266;7.104;2023-01-15T15:50:17;6.70;99.90
15184;DHT22;7693;49.266;7.104;2023-01-15T15:52:43;6.60;99.90
15184;DHT22;7693;49.266;7.104;2023-01-15T15:55:15;6.60;99.90
15184;DHT22;7693;49.266;7.104;2023-01-15T15:57:43;6.70;99.90
15184;DHT22;7693;49.266;7.104;2023-01-15T16:00:32;6.70;99.90
15184;DHT22;7693;49.266;7.104;2023-01-15T16:03:05;6.70;99.90
15184;DHT22;7693;49.266;7.104;2023-01-15T16:05:32;6.70;99.90
15184;DHT22;7693;49.266;7.104;2023-01-15T16:10:37;6.60;99.90
15184;DHT22;7693;49.266;7.104;2023-01-15T16:13:05;6.60;99.90
15184;DHT22;7693;49.266;7.104;2023-01-15T16:15:39;6.60;99.90
15184;DHT22;7693;49.266;7.104;2023-01-15T16:18:21;6.60;99.90
15184;DHT22;7693;49.266;7.104;2023-01-15T16:20:48;6.60;99.90
15184;DHT22;7693;49.266;7.104;2023-01-15T16:23:20;6.60;99.90
15184;DHT22;7693;49.266;7.104;2023-01-15T16:25:56;6.60;99.90
15184;DHT22;7693;49.266;7.104;2023-01-15T16:28:35;6.60;99.90
15184;DHT22;7693;49.266;7.104;2023-01-15T16:31:02;6.60;99.90
15184;DHT22;7693;49.266;7.104;2023-01-15T16:33:28;6.60;99.90
15184;DHT22;7693;49.266;7.104;2023-01-15T16:35:55;6.50;99.90
15184;DHT22;7693;49.266;7.104;2023-01-15T16:38:22;6.50;99.90
15184;DHT22;7693;49.266;7.104;2023-01-15T16:40:48;6.50;99.90
15184;DHT22;7693;49.266;7.104;2023-01-15T16:43:20;6.50;99.90
15184;DHT22;7693;49.266;7.104;2023-01-15T16:46:14;6.50;99.90
15184;DHT22;7693;49.266;7.104;2023-01-15T16:48:40;6.50;99.90
15184;DHT22;7693;49.266;7.104;2023-01-15T16:51:43;6.50;99.90
15184;DHT22;7693;49.266;7.104;2023-01-15T16:56:54;6.50;99.90
15184;DHT22;7693;49.266;7.104;2023-01-15T17:01:58;6.40;99.90
15184;DHT22;7693;49.266;7.104;2023-01-15T17:09:46;6.40;99.90
15184;DHT22;7693;49.266;7.104;2023-01-15T17:12:29;6.40;99.90
15184;DHT22;7693;49.266;7.104;2023-01-15T17:17:51;6.40;99.90
15184;DHT22;7693;49.266;7.104;2023-01-15T17:20:19;6.40;99.90
15184;DHT22;7693;49.266;7.104;2023-01-15T17:22:47;6.40;99.90
15184;DHT22;7693;49.266;7.104;2023-01-15T17:25:33;6.30;99.90
15184;DHT22;7693;49.266;7.104;2023-01-15T17:28:00;6.30;99.90
15184;DHT22;7693;49.266;7.104;2023-01-15T17:30:27;6.40;99.90
15184;DHT22;7693;49.266;7.104;2023-01-15T17:33:00;6.40;99.90
15184;DHT22;7693;49.266;7.104;2023-01-15T17:35:28;6.40;99.90
15184;DHT22;7693;49.266;7.104;2023-01-15T17:37:54;6.40;99.90
15184;DHT22;7693;49.266;7.104;2023-01-15T17:40:20;6.40;99.90
15184;DHT22;7693;49.266;7.104;2023-01-15T17:42:46;6.40;99.90
15184;DHT22;7693;49.266;7.104;2023-01-15T17:45:18;6.40;99.90
15184;DHT22;7693;49.266;7.104;2023-01-15T17:47:44;6.40;99.90
15184;DHT22;7693;49.266;7.104;2023-01-15T17:50:11;6.40;99.90
15184;DHT22;7693;49.266;7.104;2023-01-15T17:52:37;6.30;99.90
15184;DHT22;7693;49.266;7.104;2023-01-15T17:55:02;6.30;99.90
15184;DHT22;7693;49.266;7.104;2023-01-15T17:57:47;6.40;99.90
15184;DHT22;7693;49.266;7.104;2023-01-15T18:00:31;6.40;99.90
15184;DHT22;7693;49.266;7.104;2023-01-15T18:03:19;6.30;99.90
15184;DHT22;7693;49.266;7.104;2023-01-15T18:06:04;6.30;99.90
15184;DHT22;7693;49.266;7.104;2023-01-15T18:08:30;6.30;99.90
15184;DHT22;7693;49.266;7.104;2023-01-15T18:10:57;6.30;99.90
15184;DHT22;7693;49.266;7.104;2023-01-15T18:13:23;6.20;99.90
15184;DHT22;7693;49.266;7.104;2023-01-15T18:15:48;6.20;99.90
15184;DHT22;7693;49.266;7.104;2023-01-15T18:18:15;6.10;99.90
15184;DHT22;7693;49.266;7.104;2023-01-15T18:20:41;6.10;99.90
15184;DHT22;7693;49.266;7.104;2023-01-15T18:23:06;6.00;99.90
15184;DHT22;7693;49.266;7.104;2023-01-15T18:25:33;6.00;99.90
15184;DHT22;7693;49.266;7.104;2023-01-15T18:27:59;5.90;99.90
15184;DHT22;7693;49.266;7.104;2023-01-15T18:30:24;5.90;99.90
15184;DHT22;7693;49.266;7.104;2023-01-15T18:32:50;5.90;99.90
15184;DHT22;7693;49.266;7.104;2023-01-15T18:35:16;5.90;99.90
15184;DHT22;7693;49.266;7.104;2023-01-15T21:40:55;5.20;99.90
15184;DHT22;7693;49.266;7.104;2023-01-15T21:43:21;5.20;99.90
15184;DHT22;7693;49.266;7.104;2023-01-15T21:46:05;5.20;99.90
15184;DHT22;7693;49.266;7.104;2023-01-15T21:48:31;5.30;99.90
15184;DHT22;7693;49.266;7.104;2023-01-15T21:50:57;5.30;99.90
15184;DHT22;7693;49.266;7.104;2023-01-15T21:53:23;5.30;99.90
15184;DHT22;7693;49.266;7.104;2023-01-15T21:55:49;5.30;99.90
15184;DHT22;7693;49.266;7.104;2023-01-15T21:58:15;5.30;99.90
15184;DHT22;7693;49.266;7.104;2023-01-15T22:00:40;5.40;99.90
15184;DHT22;7693;49.266;7.104;2023-01-15T22:03:07;5.40;99.90
15184;DHT22;7693;49.266;7.104;2023-01-15T22:05:34;5.40;99.90
15184;DHT22;7693;49.266;7.104;2023-01-15T22:08:00;5.40;99.90
15184;DHT22;7693;49.266;7.104;2023-01-15T22:10:29;5.40;99.90
15184;DHT22;7693;49.266;7.104;2023-01-15T22:12:55;5.40;99.90
15184;DHT22;7693;49.266;7.104;2023-01-15T22:15:22;5.40;99.90
15184;DHT22;7693;49.266;7.104;2023-01-15T22:17:50;5.40;99.90
15184;DHT22;7693;49.266;7.104;2023-01-15T22:20:18;5.40;99.90
15184;DHT22;7693;49.266;7.104;2023-01-15T22:22:44;5.40;99.90
15184;DHT22;7693;49.266;7.104;2023-01-15T22:25:09;5.40;99.90
15184;DHT22;7693;49.266;7.104;2023-01-15T22:27:37;5.40;99.90
15184;DHT22;7693;49.266;7.104;2023-01-15T22:30:11;5.40;99.90
15184;DHT22;7693;49.266;7.104;2023-01-15T22:32:37;5.40;99.90
15184;DHT22;7693;49.266;7.104;2023-01-15T22:35:04;5.40;99.90
15184;DHT22;7693;49.266;7.104;2023-01-15T22:37:30;5.40;99.90
15184;DHT22;7693;49.266;7.104;2023-01-15T22:39:56;5.30;99.90
15184;DHT22;7693;49.266;7.104;2023-01-15T22:42:21;5.40;99.90
15184;DHT22;7693;49.266;7.104;2023-01-15T22:44:52;5.40;99.90
15184;DHT22;7693;49.266;7.104;2023-01-15T22:47:18;5.40;99.90
15184;DHT22;7693;49.266;7.104;2023-01-15T22:49:44;5.40;99.90
15184;DHT22;7693;49.266;7.104;2023-01-15T22:52:10;5.40;99.90
15184;DHT22;7693;49.266;7.104;2023-01-15T22:54:36;5.40;99.90
15184;DHT22;7693;49.266;7.104;2023-01-15T22:57:02;5.40;99.90
15184;DHT22;7693;49.266;7.104;2023-01-15T22:59:28;5.40;99.90
15184;DHT22;7693;49.266;7.104;2023-01-15T23:01:54;5.40;99.90
15184;DHT22;7693;49.266;7.104;2023-01-15T23:04:21;5.50;99.90
15184;DHT22;7693;49.266;7.104;2023-01-15T23:06:48;5.40;99.90
15184;DHT22;7693;49.266;7.104;2023-01-15T23:09:16;5.40;99.90
15184;DHT22;7693;49.266;7.104;2023-01-15T23:11:42;5.40;99.90
15184;DHT22;7693;49.266;7.104;2023-01-15T23:14:12;5.40;99.90
15184;DHT22;7693;49.266;7.104;2023-01-15T23:16:39;5.50;99.90
15184;DHT22;7693;49.266;7.104;2023-01-15T23:19:04;5.50;99.90
15184;DHT22;7693;49.266;7.104;2023-01-15T23:21:30;5.40;99.90
15184;DHT22;7693;49.266;7.104;2023-01-15T23:23:58;5.40;99.90
15184;DHT22;7693;49.266;7.104;2023-01-15T23:26:25;5.40;99.90
15184;DHT22;7693;49.266;7.104;2023-01-15T23:28:51;5.50;99.90
15184;DHT22;7693;49.266;7.104;2023-01-15T23:31:17;5.40;99.90
15184;DHT22;7693;49.266;7.104;2023-01-15T23:33:43;5.50;99.90
